createdAt,value
2022-10-11T06:20:55.686Z,26.87
2022-10-11T06:23:24.069Z,29.67
2022-10-11T06:25:58.066Z,30.13
2022-10-11T06:28:27.335Z,27.83
2022-10-11T06:30:55.734Z,30.23
2022-10-11T06:33:24.273Z,34.37
2022-10-11T06:36:00.381Z,30.20
2022-10-11T06:38:28.891Z,37.10
2022-10-11T06:40:57.117Z,25.13
2022-10-11T06:43:25.502Z,31.47
2022-10-11T06:45:53.734Z,39.37
2022-10-11T06:48:21.672Z,32.93
2022-10-11T06:50:59.484Z,39.93
2022-10-11T06:53:29.806Z,27.87
2022-10-11T06:56:04.311Z,40.73
2022-10-11T06:58:33.514Z,24.13
2022-10-11T07:01:02.848Z,38.40
2022-10-11T07:03:31.750Z,33.30
2022-10-11T07:06:02.931Z,35.40
2022-10-11T07:08:33.191Z,50.90
2022-10-11T07:11:03.332Z,43.07
2022-10-11T07:13:31.819Z,35.73
2022-10-11T07:16:02.751Z,38.83
2022-10-11T07:18:31.601Z,44.03
2022-10-11T07:21:00.275Z,39.13
2022-10-11T07:23:28.572Z,40.23
2022-10-11T07:25:58.122Z,45.17
2022-10-11T07:28:26.926Z,46.70
2022-10-11T07:30:55.238Z,52.33
2022-10-11T07:33:23.424Z,45.13
2022-10-11T07:35:51.800Z,55.40
2022-10-11T07:38:20.155Z,47.07
2022-10-11T07:40:48.617Z,39.10
2022-10-11T07:43:18.362Z,40.93
2022-10-11T07:45:48.737Z,42.63
2022-10-11T07:48:17.022Z,41.83
2022-10-11T07:50:45.129Z,40.57
2022-10-11T07:53:13.490Z,39.43
2022-10-11T07:55:42.516Z,36.90
2022-10-11T07:58:12.244Z,47.83
2022-10-11T08:00:42.760Z,38.07
2022-10-11T08:03:11.570Z,32.53
2022-10-11T08:05:39.835Z,36.97
2022-10-11T08:08:07.885Z,33.93
2022-10-11T08:10:39.265Z,32.80
2022-10-11T08:13:07.789Z,42.33
2022-10-11T08:15:36.190Z,43.43
2022-10-11T08:18:06.065Z,48.47
2022-10-11T08:20:34.619Z,31.27
2022-10-11T08:23:02.685Z,39.93
2022-10-11T08:25:30.743Z,41.70
2022-10-11T08:27:58.825Z,31.37
2022-10-11T08:30:26.798Z,39.90
2022-10-11T08:32:55.019Z,32.80
2022-10-11T08:35:24.327Z,27.53
2022-10-11T08:37:52.364Z,19.47
2022-10-11T08:40:23.191Z,27.07
2022-10-11T08:42:58.471Z,25.80
2022-10-11T08:45:33.098Z,21.00
2022-10-11T08:48:09.821Z,15.97
2022-10-11T08:50:40.121Z,17.57
2022-10-11T08:53:20.501Z,21.47
2022-10-11T08:55:52.335Z,16.50
2022-10-11T08:58:24.330Z,23.47
2022-10-11T09:00:55.660Z,20.30
2022-10-11T09:03:31.381Z,21.97
2022-10-11T09:06:13.397Z,19.10
2022-10-11T09:08:56.552Z,16.83
2022-10-11T09:11:34.451Z,17.83
2022-10-11T09:14:19.332Z,26.57
2022-10-11T09:17:00.910Z,23.00
2022-10-11T09:19:52.928Z,28.73
2022-10-11T09:22:33.854Z,22.53
2022-10-11T09:25:15.420Z,25.37
2022-10-11T09:28:02.403Z,27.13
2022-10-11T09:30:31.561Z,28.33
2022-10-11T09:33:10.258Z,33.93
2022-10-11T09:35:42.113Z,35.43
2022-10-11T09:38:19.579Z,22.70
2022-10-11T09:41:00.304Z,23.37
2022-10-11T09:43:28.594Z,26.77
2022-10-11T09:45:56.730Z,22.07
2022-10-11T09:48:28.610Z,19.00
2022-10-11T09:51:04.321Z,23.20
2022-10-11T09:53:56.398Z,19.53
2022-10-11T09:56:26.511Z,14.70
2022-10-11T09:59:28.580Z,14.93
2022-10-11T10:02:19.826Z,18.13
2022-10-11T10:05:02.730Z,20.37
2022-10-11T10:07:32.600Z,16.67
2022-10-11T10:10:31.135Z,23.23
2022-10-11T10:13:01.819Z,17.50
2022-10-11T10:15:32.463Z,20.40
2022-10-11T10:18:01.140Z,16.97
2022-10-11T10:20:31.956Z,20.07
2022-10-11T10:23:02.457Z,24.33
2022-10-11T10:25:43.106Z,18.23
2022-10-11T10:28:21.537Z,17.70
2022-10-11T10:30:55.383Z,26.63
2022-10-11T10:33:25.830Z,16.80
2022-10-11T10:35:57.769Z,10.45
2022-10-11T10:38:29.542Z,15.10
2022-10-11T10:41:02.663Z,19.15
2022-10-11T10:43:34.484Z,14.02
2022-10-11T10:46:32.227Z,19.35
2022-10-11T10:52:12.546Z,19.75
2022-10-11T10:54:50.266Z,12.60
2022-10-11T10:57:24.761Z,16.73
2022-10-11T11:00:05.315Z,12.07
2022-10-11T11:02:42.202Z,13.18
2022-10-11T11:05:22.892Z,16.17
2022-10-11T11:07:56.203Z,14.63
2022-10-11T11:10:28.676Z,11.93
2022-10-11T11:13:09.357Z,9.27
2022-10-11T11:15:44.983Z,11.80
2022-10-11T11:18:29.273Z,12.18
2022-10-11T11:21:16.798Z,7.07
2022-10-11T11:23:54.995Z,10.00
2022-10-11T11:26:32.737Z,9.63
2022-10-11T11:29:12.539Z,11.70
2022-10-11T11:31:53.669Z,8.50
2022-10-11T11:34:25.449Z,9.23
2022-10-11T11:36:59.048Z,11.07
2022-10-11T11:39:34.080Z,13.13
2022-10-11T11:42:09.005Z,11.13
2022-10-11T11:44:41.901Z,12.05
2022-10-11T11:47:18.253Z,8.20
2022-10-11T11:49:50.196Z,8.80
2022-10-11T11:52:26.708Z,7.68
2022-10-11T11:55:04.226Z,9.90
2022-10-11T11:57:46.066Z,10.77
2022-10-11T12:00:20.298Z,12.85
2022-10-11T12:02:53.190Z,9.10
2022-10-11T12:05:24.702Z,9.32
2022-10-11T12:07:59.862Z,13.93
2022-10-11T12:10:36.380Z,11.50
2022-10-11T12:13:18.184Z,12.20
2022-10-11T12:16:10.954Z,9.20
2022-10-11T12:18:51.431Z,9.30
2022-10-11T12:21:28.507Z,14.52
2022-10-11T12:23:58.727Z,12.00
2022-10-11T12:26:40.688Z,9.32
2022-10-11T12:29:44.230Z,10.70
2022-10-11T12:32:53.657Z,9.20
2022-10-11T12:36:05.595Z,9.52
2022-10-11T12:38:39.850Z,7.50
2022-10-11T12:41:50.335Z,9.63
2022-10-11T12:44:24.912Z,13.07
2022-10-11T12:47:21.698Z,9.57
2022-10-11T12:50:06.214Z,8.40
2022-10-11T12:52:41.769Z,8.30
2022-10-11T12:55:31.204Z,10.10
2022-10-11T12:58:28.401Z,9.40
2022-10-11T13:01:25.005Z,10.38
2022-10-11T13:04:01.230Z,8.48
2022-10-11T13:06:34.991Z,9.25
2022-10-11T13:09:08.429Z,12.73
2022-10-11T13:11:40.348Z,9.65
2022-10-11T13:14:12.340Z,12.77
2022-10-11T13:16:50.459Z,12.07
2022-10-11T13:19:23.158Z,10.65
2022-10-11T13:21:55.739Z,11.95
2022-10-11T13:24:25.363Z,12.27
2022-10-11T13:26:56.659Z,10.52
2022-10-11T13:29:33.789Z,11.55
2022-10-11T13:32:04.942Z,13.27
2022-10-11T13:34:38.346Z,13.68
2022-10-11T13:37:08.967Z,11.40
2022-10-11T13:39:39.319Z,11.88
2022-10-11T13:42:10.112Z,9.88
2022-10-11T13:44:39.953Z,7.15
2022-10-11T13:47:10.539Z,10.13
2022-10-11T13:49:40.511Z,11.18
2022-10-11T13:52:23.194Z,8.68
2022-10-11T13:55:14.907Z,9.43
2022-10-11T13:57:46.203Z,8.40
2022-10-11T14:00:30.839Z,11.30
2022-10-11T14:03:03.973Z,8.10
2022-10-11T14:05:41.374Z,9.90
2022-10-11T14:08:26.028Z,11.85
2022-10-11T14:10:57.766Z,10.25
2022-10-11T14:13:32.701Z,18.00
2022-10-11T14:16:03.402Z,8.57
2022-10-11T14:18:46.992Z,22.83
2022-10-11T14:21:31.539Z,8.60
2022-10-11T14:24:02.973Z,8.15
2022-10-11T14:26:35.447Z,11.90
2022-10-11T14:29:06.621Z,10.55
2022-10-11T14:31:39.165Z,8.82
2022-10-11T14:34:10.632Z,8.80
2022-10-11T14:36:38.899Z,8.40
2022-10-11T14:39:14.808Z,10.43
2022-10-11T14:41:43.240Z,10.20
2022-10-11T14:44:11.513Z,10.53
2022-10-11T14:46:41.143Z,7.63
2022-10-11T14:49:15.811Z,9.45
2022-10-11T14:51:45.497Z,9.70
2022-10-11T14:54:16.737Z,9.02
2022-10-11T14:56:45.152Z,13.00
2022-10-11T14:59:15.733Z,13.88
2022-10-11T15:01:46.317Z,8.90
2022-10-11T15:04:14.857Z,8.70
2022-10-11T15:06:43.622Z,13.10
2022-10-11T15:09:12.130Z,10.10
2022-10-11T15:11:42.092Z,12.35
2022-10-11T15:14:10.704Z,10.93
2022-10-11T15:16:40.361Z,9.43
2022-10-11T15:19:12.171Z,10.05
2022-10-11T15:21:40.379Z,7.10
2022-10-11T15:24:08.827Z,9.48
2022-10-11T15:26:37.337Z,7.78
2022-10-11T15:29:09.582Z,9.32
2022-10-11T15:31:38.137Z,7.93
2022-10-11T15:34:06.563Z,11.15
2022-10-11T15:36:34.735Z,9.68
2022-10-11T15:39:03.427Z,8.82
2022-10-11T15:41:31.904Z,7.60
2022-10-11T15:44:00.283Z,9.80
2022-10-11T15:46:29.953Z,12.07
2022-10-11T15:48:58.132Z,9.80
2022-10-11T15:51:26.269Z,9.60
2022-10-11T15:53:54.514Z,8.23
2022-10-11T15:56:22.896Z,11.97
2022-10-11T15:58:51.274Z,9.83
2022-10-11T16:01:21.432Z,14.00
2022-10-11T16:03:51.960Z,10.43
2022-10-11T16:06:21.040Z,10.40
2022-10-11T16:08:49.301Z,8.37
2022-10-11T16:11:17.767Z,10.77
2022-10-11T16:13:46.576Z,11.20
